Pine City, MN

7:26 AM CDT on October 23, 2014 (GMT -0500)
Cambridge Municipal | Change Station
CLOSE
Current Station
Airport
Location: Cambridge,
Elevation: 945 ft
Nearby Weather Stations

Elev 945 ft 45.56 °N, 93.26 °W | Updated 10 minutes ago

Overcast
Overcast
54 °F
Feels Like 54 °F
N
0
Wind Variable Wind from North

Today
High -- | Low -- °F
--% Chance of Precip.
Yesterday
High -- | Low -- °F
Precip. -- in
7:39 AM 6:12 PM
Waning Crescent, 0% visible
Pressure 29.96 in
Visibility 0.8 miles
Clouds Overcast 200 ft
Dew Point 46 °F
Humidity 77%
Rainfall 0.21 in
Snow Depth Not available.
UV 0 out of 12
Pollen .10 out of 12
Air Quality Not available.
Flu Activity Sporadic
METAR KCBG 231216Z AUTO 00000KT 3/4SM HZ OVC002 12/08 A2996 RMK AO2

More Conditions Fewer Conditions

Pressure 29.96 in
Visibility 0.8 miles
Clouds Overcast 200 ft
Dew Point 46 °F
Humidity 77%
Rainfall 0.21 in
Snow Depth Not available.
UV 0 out of 12
Pollen .10 out of 12
Air Quality Not available.
Flu Activity Sporadic
METAR KCBG 231216Z AUTO 00000KT 3/4SM HZ OVC002 12/08 A2996 RMK AO2

More Conditions Fewer Conditions

10-Day Weather Forecast

Almanac

Astronomy

Oct. 23, 2014 Rise Set
Actual Time 7:39 AM CDT 6:12 PM CDT
Civil Twilight 7:08 AM CDT 6:42 PM CDT
Nautical Twilight 6:34 AM CDT 7:17 PM CDT
Astronomical Twilight 5:59 AM CDT 7:51 PM CDT
Moon 7:18 AM CDT 6:14 PM CDT
Length of Visible Light 11h 33m
Length of Day
10h 32m
Tomorrow will be 3m 1s shorter.
Waning Crescent, 0% of the Moon is Illuminated
Today
Waning Crescent
Oct 23
New
Oct 30
First Quarter
Nov 6
Full
Nov 14
Last Quarter

Today's Extremes

State Highs State Lows

Community

WunderPhotos

Upload Photos

1,764,211 photos uploaded!

WunderBlogs® & News

Nearby

Snow Depth

Station Depth Elevation
No new snow has been reported.

Earthquake Activity

City Distance Mag. Time & Date
No recent earthquake activity has been reported nearby.
Minimum magnitude displayed is 2.5.

Coastal Water Temperatures

Place Temperature
No Stations Reporting

Nearby Weather Stations